| time (UTC) | temp F | wind direction | speed MPH | gust MPH | rain 1hr in | rain 24hr in | rain mn in | humidity % | barometer mb |
| 20260504035305 | 61 | 0 | 0.0 | 2.0 | 0.00 | 0.00 | 0.00 | 64 | 1019.3 |
| 20260504034805 | 61 | 0 | 0.0 | 2.0 | 0.00 | 0.00 | 0.00 | 64 | 1019.3 |
| 20260504034306 | 61 | 0 | 0.0 | 2.0 | 0.00 | 0.00 | 0.00 | 64 | 1019.3 |
| 20260504033806 | 61 | 0 | 0.0 | 2.0 | 0.00 | 0.00 | 0.00 | 64 | 1019.3 |
| 20260504033305 | 61 | 0 | 0.0 | 2.0 | 0.00 | 0.00 | 0.00 | 64 | 1019.3 |
| 20260504032805 | 61 | 0 | 0.0 | 1.0 | 0.00 | 0.00 | 0.00 | 64 | 1019.3 |
| 20260504032305 | 61 | 202 | 1.0 | 3.0 | 0.00 | 0.00 | 0.00 | 64 | 1019.3 |
| 20260504031805 | 61 | 0 | 0.0 | 3.0 | 0.00 | 0.00 | 0.00 | 64 | 1019.3 |
| 20260504031305 | 61 | 0 | 0.0 | 3.0 | 0.00 | 0.00 | 0.00 | 64 | 1019.3 |
| 20260504030305 | 62 | 207 | 1.0 | 3.0 | 0.00 | 0.00 | 0.00 | 64 | 1019.3 |
| 20260504025805 | 65 | 202 | 2.0 | 2.0 | 0.00 | 0.00 | 0.00 | 61 | 1019.1 |
| 20260504025306 | 66 | 205 | 1.0 | 3.0 | 0.00 | 0.00 | 0.00 | 64 | 1019.2 |
| 20260504024805 | 63 | 0 | 1.0 | 3.0 | 0.00 | 0.00 | 0.00 | 58 | 1019.0 |
| 20260504023805 | 63 | 0 | 0.0 | 3.0 | 0.00 | 0.00 | 0.00 | 58 | 1019.0 |
| 20260504023305 | 63 | 0 | 0.0 | 3.0 | 0.00 | 0.00 | 0.00 | 58 | 1019.0 |
| 20260504022805 | 63 | 198 | 1.0 | 3.0 | 0.00 | 0.00 | 0.00 | 58 | 1019.0 |
| 20260504022305 | 63 | 198 | 1.0 | 2.0 | 0.00 | 0.00 | 0.00 | 58 | 1019.0 |
| 20260504021805 | 63 | 0 | 0.0 | 2.0 | 0.00 | 0.00 | 0.00 | 58 | 1019.0 |
| 20260504021305 | 63 | 198 | 1.0 | 2.0 | 0.00 | 0.00 | 0.00 | 58 | 1019.0 |
| 20260504020805 | 63 | 198 | 1.0 | 3.0 | 0.00 | 0.00 | 0.00 | 58 | 1019.0 |
| 20260504020305 | 63 | 0 | 0.0 | 3.0 | 0.00 | 0.00 | 0.00 | 58 | 1019.0 |
| 20260504015805 | 64 | 0 | 0.0 | 5.0 | 0.00 | 0.00 | 0.00 | 57 | 1018.3 |
| 20260504014804 | 64 | 0 | 0.0 | 5.0 | 0.00 | 0.00 | 0.00 | 57 | 1018.3 |
| 20260504014305 | 65 | 196 | 2.0 | 8.0 | 0.00 | 0.00 | 0.00 | 58 | 1018.4 |
| 20260504013805 | 66 | 192 | 1.0 | 8.0 | 0.00 | 0.00 | 0.00 | 59 | 1018.5 |
| 20260504013305 | 64 | 191 | 1.0 | 8.0 | 0.00 | 0.00 | 0.00 | 57 | 1018.3 |
| 20260504012305 | 64 | 211 | 1.0 | 3.0 | 0.00 | 0.00 | 0.00 | 57 | 1018.3 |
| 20260504011806 | 64 | 0 | 0.0 | 5.0 | 0.00 | 0.00 | 0.00 | 57 | 1018.3 |
| 20260504011304 | 64 | 0 | 0.0 | 5.0 | 0.00 | 0.00 | 0.00 | 57 | 1018.3 |
| 20260504010805 | 64 | 0 | 0.0 | 5.0 | 0.00 | 0.00 | 0.00 | 57 | 1018.3 |
| 20260504010305 | 64 | 209 | 1.0 | 7.0 | 0.00 | 0.00 | 0.00 | 57 | 1018.3 |
| 20260504005806 | 71 | 192 | 1.0 | 7.0 | 0.00 | 0.00 | 0.00 | 37 | 1017.9 |
| 20260504004805 | 71 | 198 | 1.0 | 7.0 | 0.00 | 0.00 | 0.00 | 37 | 1017.9 |
| 20260504004305 | 71 | 217 | 2.0 | 5.0 | 0.00 | 0.00 | 0.00 | 37 | 1017.9 |
| 20260504003805 | 71 | 221 | 1.0 | 5.0 | 0.00 | 0.00 | 0.00 | 37 | 1017.9 |
| 20260504003305 | 71 | 201 | 1.0 | 3.0 | 0.00 | 0.00 | 0.00 | 37 | 1017.9 |
| 20260504002804 | 71 | 245 | 2.0 | 3.0 | 0.00 | 0.00 | 0.00 | 37 | 1018.0 |
| 20260504002305 | 70 | 289 | 1.0 | 3.0 | 0.00 | 0.00 | 0.00 | 37 | 1017.9 |
| 20260504001805 | 70 | 351 | 1.0 | 3.0 | 0.00 | 0.00 | 0.00 | 42 | 1017.9 |
| 20260504001304 | 71 | 213 | 2.0 | 5.0 | 0.00 | 0.00 | 0.00 | 37 | 1017.9 |
| 20260504000805 | 71 | 213 | 2.0 | 5.0 | 0.00 | 0.00 | 0.00 | 37 | 1017.9 |
| 20260504000304 | 71 | 0 | 0.0 | 7.0 | 0.00 | 0.00 | 0.00 | 53 | 1017.9 |
| 20260503235305 | 75 | 239 | 3.0 | 6.0 | 0.00 | 0.00 | 0.00 | 30 | 1018.3 |
| 20260503234805 | 75 | 209 | 2.0 | 5.0 | 0.00 | 0.00 | 0.00 | 35 | 1018.3 |
| 20260503233304 | 75 | 0 | 0.0 | 5.0 | 0.00 | 0.00 | 0.00 | 30 | 1018.3 |
| 20260503232306 | 75 | 57 | 1.0 | 5.0 | 0.00 | 0.00 | 0.00 | 30 | 1018.3 |
| 20260503231805 | 75 | 94 | 2.0 | 5.0 | 0.00 | 0.00 | 0.00 | 30 | 1018.3 |
| 20260503231305 | 75 | 0 | 1.0 | 5.0 | 0.00 | 0.00 | 0.00 | 30 | 1018.3 |
| 20260503230805 | 75 | 0 | 1.0 | 5.0 | 0.00 | 0.00 | 0.00 | 32 | 1018.2 |
| 20260503230305 | 75 | 8 | 3.0 | 5.0 | 0.00 | 0.00 | 0.00 | 30 | 1018.1 |
| 20260503225805 | 75 | 11 | 3.0 | 7.0 | 0.00 | 0.00 | 0.00 | 37 | 1018.0 |
| 20260503225305 | 75 | 12 | 2.0 | 7.0 | 0.00 | 0.00 | 0.00 | 31 | 1018.3 |
| 20260503224805 | 75 | 355 | 4.0 | 8.0 | 0.00 | 0.00 | 0.00 | 30 | 1018.3 |
| 20260503224305 | 75 | 332 | 6.0 | 8.0 | 0.00 | 0.00 | 0.00 | 30 | 1018.3 |
| 20260503223804 | 75 | 26 | 3.0 | 8.0 | 0.00 | 0.00 | 0.00 | 33 | 1018.3 |
| 20260503223306 | 75 | 329 | 2.0 | 5.0 | 0.00 | 0.00 | 0.00 | 30 | 1018.3 |
| 20260503222804 | 75 | 0 | 0.0 | 5.0 | 0.00 | 0.00 | 0.00 | 30 | 1018.3 |
| 20260503222305 | 75 | 344 | 1.0 | 5.0 | 0.00 | 0.00 | 0.00 | 30 | 1018.3 |
| 20260503221305 | 75 | 152 | 2.0 | 10.0 | 0.00 | 0.00 | 0.00 | 30 | 1018.3 |
| 20260503220804 | 75 | 252 | 2.0 | 12.0 | 0.00 | 0.00 | 0.00 | 30 | 1018.3 |
| 20260503220304 | 75 | 5 | 2.0 | 12.0 | 0.00 | 0.00 | 0.00 | 30 | 1018.3 |
| 20260503215804 | 76 | 0 | 2.0 | 12.0 | 0.00 | 0.00 | 0.00 | 28 | 1019.0 |
| 20260503215304 | 76 | 0 | 2.0 | 12.0 | 0.00 | 0.00 | 0.00 | 29 | 1018.9 |
| 20260503214805 | 77 | 348 | 1.0 | 9.0 | 0.00 | 0.00 | 0.00 | 32 | 1018.7 |
| 20260503214305 | 77 | 16 | 2.0 | 8.0 | 0.00 | 0.00 | 0.00 | 28 | 1018.2 |
| 20260503213804 | 76 | 102 | 2.0 | 8.0 | 0.00 | 0.00 | 0.00 | 28 | 1018.9 |
| 20260503212805 | 76 | 319 | 3.0 | 9.0 | 0.00 | 0.00 | 0.00 | 29 | 1018.9 |
| 20260503212305 | 76 | 11 | 3.0 | 9.0 | 0.00 | 0.00 | 0.00 | 28 | 1019.0 |
| 20260503211804 | 76 | 190 | 3.0 | 9.0 | 0.00 | 0.00 | 0.00 | 28 | 1019.0 |
| 20260503211304 | 76 | 36 | 1.0 | 9.0 | 0.00 | 0.00 | 0.00 | 28 | 1019.0 |
| 20260503210305 | 76 | 347 | 1.0 | 8.0 | 0.00 | 0.00 | 0.00 | 28 | 1019.0 |
| 20260503205805 | 75 | 52 | 2.0 | 8.0 | 0.00 | 0.00 | 0.00 | 29 | 1020.0 |
| 20260503205304 | 75 | 347 | 2.0 | 8.0 | 0.00 | 0.00 | 0.00 | 29 | 1020.0 |
| 20260503204805 | 75 | 355 | 3.0 | 8.0 | 0.00 | 0.00 | 0.00 | 29 | 1020.0 |
| 20260503204304 | 75 | 0 | 0.0 | 3.0 | 0.00 | 0.00 | 0.00 | 29 | 1020.0 |
| 20260503203805 | 75 | 277 | 1.0 | 3.0 | 0.00 | 0.00 | 0.00 | 29 | 1020.0 |
| 20260503203305 | 75 | 230 | 1.0 | 6.0 | 0.00 | 0.00 | 0.00 | 30 | 1019.8 |
| 20260503202305 | 77 | 351 | 3.0 | 6.0 | 0.00 | 0.00 | 0.00 | 29 | 1019.5 |
| 20260503201805 | 75 | 348 | 3.0 | 7.0 | 0.00 | 0.00 | 0.00 | 29 | 1019.9 |
| 20260503201304 | 75 | 0 | 1.0 | 7.0 | 0.00 | 0.00 | 0.00 | 30 | 1019.9 |
| 20260503200304 | 75 | 327 | 3.0 | 8.0 | 0.00 | 0.00 | 0.00 | 29 | 1020.0 |
| 20260503195804 | 76 | 355 | 1.0 | 9.0 | 0.00 | 0.00 | 0.00 | 28 | 1020.7 |
| 20260503195305 | 76 | 314 | 2.0 | 9.0 | 0.00 | 0.00 | 0.00 | 31 | 1020.7 |
| 20260503194305 | 76 | 355 | 3.0 | 9.0 | 0.00 | 0.00 | 0.00 | 28 | 1020.7 |
| 20260503193805 | 76 | 355 | 1.0 | 6.0 | 0.00 | 0.00 | 0.00 | 28 | 1020.7 |
| 20260503193305 | 76 | 314 | 2.0 | 5.0 | 0.00 | 0.00 | 0.00 | 28 | 1020.7 |
| 20260503192805 | 76 | 239 | 2.0 | 9.0 | 0.00 | 0.00 | 0.00 | 28 | 1020.7 |
| 20260503192305 | 76 | 325 | 3.0 | 9.0 | 0.00 | 0.00 | 0.00 | 28 | 1020.7 |
| 20260503191804 | 76 | 329 | 3.0 | 9.0 | 0.00 | 0.00 | 0.00 | 28 | 1020.7 |
| 20260503190805 | 76 | 59 | 3.0 | 5.0 | 0.00 | 0.00 | 0.00 | 32 | 1020.5 |
| 20260503190304 | 76 | 24 | 2.0 | 5.0 | 0.00 | 0.00 | 0.00 | 34 | 1020.4 |
| 20260503185804 | 77 | 38 | 2.0 | 7.0 | 0.00 | 0.00 | 0.00 | 28 | 1021.6 |
| 20260503185305 | 74 | 333 | 2.0 | 7.0 | 0.00 | 0.00 | 0.00 | 29 | 1021.6 |
| 20260503184804 | 74 | 331 | 4.0 | 7.0 | 0.00 | 0.00 | 0.00 | 29 | 1021.6 |
| 20260503183804 | 74 | 278 | 3.0 | 8.0 | 0.00 | 0.00 | 0.00 | 28 | 1021.7 |
| 20260503183305 | 74 | 10 | 2.0 | 8.0 | 0.00 | 0.00 | 0.00 | 28 | 1021.7 |
| 20260503182804 | 74 | 331 | 2.0 | 8.0 | 0.00 | 0.00 | 0.00 | 28 | 1021.7 |
| 20260503181305 | 74 | 255 | 1.0 | 8.0 | 0.00 | 0.00 | 0.00 | 28 | 1021.7 |
| 20260503180804 | 74 | 320 | 5.0 | 8.0 | 0.00 | 0.00 | 0.00 | 28 | 1021.7 |
| 20260503180305 | 74 | 355 | 1.0 | 9.0 | 0.00 | 0.00 | 0.00 | 28 | 1021.7 |
| 20260503175805 | 73 | 274 | 3.0 | 9.0 | 0.00 | 0.00 | 0.00 | 27 | 1022.4 |
| 20260503175305 | 73 | 327 | 3.0 | 9.0 | 0.00 | 0.00 | 0.00 | 27 | 1022.1 |
| 20260503174804 | 74 | 323 | 2.0 | 9.0 | 0.00 | 0.00 | 0.00 | 31 | 1021.8 |
| 20260503172805 | 73 | 337 | 5.0 | 9.0 | 0.00 | 0.00 | 0.00 | 39 | 1022.3 |
| 20260503171804 | 73 | 15 | 3.0 | 8.0 | 0.00 | 0.00 | 0.00 | 27 | 1022.4 |
| 20260503171305 | 73 | 61 | 3.0 | 6.0 | 0.00 | 0.00 | 0.00 | 27 | 1022.4 |
| 20260503170804 | 73 | 244 | 1.0 | 9.0 | 0.00 | 0.00 | 0.00 | 27 | 1022.4 |
| 20260503170304 | 73 | 47 | 2.0 | 12.0 | 0.00 | 0.00 | 0.00 | 27 | 1022.4 |
| 20260503150303 | 69 | 9 | 4.0 | 12.0 | 0.00 | 0.00 | 0.00 | 43 | 1022.5 |
| 20260503140305 | 66 | 92 | 1.0 | 5.0 | 0.00 | 0.00 | 0.00 | 46 | 1022.4 |
| 20260503131304 | 58 | 0 | 0.0 | 6.0 | 0.00 | 0.00 | 0.00 | 69 | 1021.7 |
| 20260503130304 | 58 | 346 | 1.0 | 8.0 | 0.00 | 0.00 | 0.00 | 69 | 1021.7 |
| 20260503110304 | 44 | 0 | 0.0 | 0.0 | 0.00 | 0.03 | 0.00 | 92 | 1021.0 |
| 20260503090305 | 47 | 0 | 0.0 | 0.0 | 0.00 | 0.17 | 0.00 | 89 | 1020.0 |
| 20260503081305 | 46 | 0 | 0.0 | 0.0 | 0.00 | 0.33 | 0.00 | 91 | 1019.6 |
| 20260503080805 | 46 | 0 | 0.0 | 0.0 | 0.00 | 0.35 | 0.00 | 89 | 1019.6 |
| 20260503080306 | 46 | 0 | 0.0 | 0.0 | 0.00 | 0.36 | 0.00 | 87 | 1019.4 |
| 20260503072806 | 47 | 0 | 0.0 | 0.0 | 0.00 | 0.63 | 0.00 | 89 | 1019.3 |
| 20260503072306 | 47 | 0 | 0.0 | 0.0 | 0.00 | 0.68 | 0.00 | 89 | 1019.3 |
| 20260503071805 | 47 | 0 | 0.0 | 0.0 | 0.00 | 0.70 | 0.00 | 89 | 1019.3 |
| 20260503071306 | 47 | 0 | 0.0 | 0.0 | 0.00 | 0.71 | 0.00 | 89 | 1019.3 |
| 20260503070805 | 47 | 0 | 0.0 | 0.0 | 0.00 | 0.71 | 0.00 | 89 | 1019.3 |
| 20260503060306 | 52 | 0 | 0.0 | 0.0 | 0.00 | 0.84 | 0.00 | 68 | 1019.3 |
| 20260503054806 | 54 | 0 | 0.0 | 1.0 | 0.00 | 1.02 | 0.00 | 64 | 1019.0 |
| 20260503054305 | 54 | 0 | 0.0 | 1.0 | 0.00 | 1.03 | 0.00 | 64 | 1019.0 |
| 20260503053806 | 54 | 0 | 0.0 | 0.0 | 0.00 | 1.03 | 0.00 | 64 | 1019.0 |
| 20260503053306 | 54 | 0 | 0.0 | 0.0 | 0.00 | 1.07 | 0.00 | 64 | 1019.0 |
| 20260503052306 | 54 | 0 | 0.0 | 1.0 | 0.00 | 1.18 | 0.00 | 64 | 1019.0 |
| 20260503051805 | 54 | 0 | 0.0 | 1.0 | 0.00 | 1.20 | 0.00 | 64 | 1019.2 |
| 20260503051306 | 54 | 0 | 0.0 | 1.0 | 0.00 | 1.22 | 0.00 | 64 | 1019.0 |
| 20260503050805 | 54 | 0 | 0.0 | 1.0 | 0.00 | 1.23 | 0.00 | 64 | 1019.0 |
| 20260503045806 | 54 | 0 | 0.0 | 1.0 | 0.00 | 1.25 | 1.25 | 66 | 1019.0 |
| 20260503045305 | 54 | 0 | 0.0 | 1.0 | 0.00 | 1.25 | 1.25 | 66 | 1019.0 |
| 20260503044806 | 54 | 0 | 0.0 | 1.0 | 0.00 | 1.25 | 1.25 | 66 | 1019.0 |
| 20260503043306 | 54 | 0 | 0.0 | 2.0 | 0.00 | 1.25 | 1.25 | 66 | 1019.0 |
| 20260503042806 | 54 | 0 | 0.0 | 2.0 | 0.00 | 1.25 | 1.25 | 66 | 1019.0 |
| 20260503042305 | 54 | 0 | 0.0 | 2.0 | 0.00 | 1.25 | 1.25 | 66 | 1019.0 |
| 20260503041805 | 54 | 0 | 0.0 | 1.0 | 0.00 | 1.25 | 1.25 | 66 | 1019.0 |
| 20260503040805 | 56 | 0 | 0.0 | 1.0 | 0.00 | 1.25 | 1.25 | 64 | 1018.3 |
| 20260503040305 | 56 | 0 | 0.0 | 1.0 | 0.00 | 1.25 | 1.25 | 64 | 1018.4 |
| 20260503035805 | 55 | 0 | 0.0 | 0.0 | 0.00 | 1.57 | 1.25 | 64 | 1018.5 |